Map

Track Data

SID SEASON NUMBER BASIN SUBBASIN NAME ISO_TIME NATURE LAT LON WMO_WIND WMO_PRES WMO_AGENCY TRACK_TYPE DIST2LAND LANDFALL IFLAG USA_AGENCY USA_ATCF_ID USA_LAT USA_LON USA_RECORD USA_STATUS USA_WIND USA_PRES USA_SSHS USA_R34_NE USA_R34_SE USA_R34_SW USA_R34_NW USA_R50_NE USA_R50_SE USA_R50_SW USA_R50_NW USA_R64_NE USA_R64_SE USA_R64_SW USA_R64_NW USA_POCI USA_ROCI USA_RMW USA_EYE TOKYO_LAT TOKYO_LON TOKYO_GRADE TOKYO_WIND TOKYO_PRES TOKYO_R50_DIR TOKYO_R50_LONG TOKYO_R50_SHORT TOKYO_R30_DIR TOKYO_R30_LONG TOKYO_R30_SHORT TOKYO_LAND CMA_LAT CMA_LON CMA_CAT CMA_WIND CMA_PRES HKO_LAT HKO_LON HKO_CAT HKO_WIND HKO_PRES NEWDELHI_LAT NEWDELHI_LON NEWDELHI_GRADE NEWDELHI_WIND NEWDELHI_PRES NEWDELHI_CI NEWDELHI_DP NEWDELHI_POCI REUNION_LAT REUNION_LON REUNION_TYPE REUNION_WIND REUNION_PRES REUNION_TNUM REUNION_CI REUNION_RMW REUNION_R34_NE REUNION_R34_SE REUNION_R34_SW REUNION_R34_NW REUNION_R50_NE REUNION_R50_SE REUNION_R50_SW REUNION_R50_NW REUNION_R64_NE REUNION_R64_SE REUNION_R64_SW REUNION_R64_NW BOM_LAT BOM_LON BOM_TYPE BOM_WIND BOM_PRES BOM_TNUM BOM_CI BOM_RMW BOM_R34_NE BOM_R34_SE BOM_R34_SW BOM_R34_NW BOM_R50_NE BOM_R50_SE BOM_R50_SW BOM_R50_NW BOM_R64_NE BOM_R64_SE BOM_R64_SW BOM_R64_NW BOM_ROCI BOM_POCI BOM_EYE BOM_POS_METHOD BOM_PRES_METHOD NADI_LAT NADI_LON NADI_CAT NADI_WIND NADI_PRES WELLINGTON_LAT WELLINGTON_LON WELLINGTON_WIND WELLINGTON_PRES DS824_LAT DS824_LON DS824_STAGE DS824_WIND DS824_PRES TD9636_LAT TD9636_LON TD9636_STAGE TD9636_WIND TD9636_PRES TD9635_LAT TD9635_LON TD9635_WIND TD9635_PRES TD9635_ROCI NEUMANN_LAT NEUMANN_LON NEUMANN_CLASS NEUMANN_WIND NEUMANN_PRES MLC_LAT MLC_LON MLC_CLASS MLC_WIND MLC_PRES USA_GUST BOM_GUST BOM_GUST_PER REUNION_GUST REUNION_GUST_PER USA_SEAHGT USA_SEARAD_NE USA_SEARAD_SE USA_SEARAD_SW USA_SEARAD_NW STORM_SPEED STORM_DIR
1990206N29154 1990 55 WP MM NOT_NAMED 1990-07-25 00:00:00 TS 29.0000 154.000 main 1435 1435 __O___________ -1 29.0000 154.000 0 19 1005 3 178
1990206N29154 1990 55 WP MM NOT_NAMED 1990-07-25 03:00:00 TS 28.8750 154.000 main 1442 1435 __P___________ -1 28.8750 154.000 0 19 1005 0 0
1990206N29154 1990 55 WP MM NOT_NAMED 1990-07-25 06:00:00 TS 29.0000 154.000 main 1435 1404 __O___________ -1 29.0000 154.000 0 19 1005 6 2
1990206N29154 1990 55 WP MM NOT_NAMED 1990-07-25 09:00:00 TS 29.5000 154.000 main 1404 1375 __P___________ -1 29.5000 154.000 0 19 1005 10 1
1990206N29154 1990 55 WP MM NOT_NAMED 1990-07-25 12:00:00 TS 30.0000 154.000 main 1375 1361 __O___________ -1 30.0000 154.000 0 19 1005 6 353
1990206N29154 1990 55 WP MM NOT_NAMED 1990-07-25 15:00:00 TS 30.0747 153.925 main 1361 1361 __P___________ -1 30.0747 153.925 0 19 1005 0 0
1990206N29154 1990 55 WP MM NOT_NAMED 1990-07-25 18:00:00 TS 30.0000 154.000 main 1375 1375 __O___________ -1 30.0000 154.000 0 19 1005 5 109
1990206N29154 1990 55 WP MM NOT_NAMED 1990-07-25 21:00:00 TS 29.9254 154.426 main 1413 1413 __P___________ -1 29.9254 154.426 0 19 1005 9 90
1990206N29154 1990 55 WP MM NOT_NAMED 1990-07-26 00:00:00 TS 30.0000 155.000 main 1458 1458 __O___________ -1 30.0000 155.000 0 19 1005 11 60
1990206N29154 1990 55 WP MM NOT_NAMED 1990-07-26 03:00:00 TS 30.5004 155.573 main 1482 1477 __P___________ -1 30.5004 155.573 0 21 1003 13 41
1990206N29154 1990 55 WP MM NOT_NAMED 1990-07-26 06:00:00 TS 31.0000 156.000 main 1492 1492 __O___________ -1 31.0000 156.000 1 23 1002 7 41
1990206N29154 1990 55 WP MM NOT_NAMED 1990-07-26 09:00:00 TS 30.9997 156.076 main 1501 1492 __P___________ -1 30.9997 156.076 1 23 1002 0 0
1990206N29154 1990 55 WP MM NOT_NAMED 1990-07-26 12:00:00 TS 31.0000 156.000 main 1492 1474 __O___________ -1 31.0000 156.000 1 23 1002 4 354
1990206N29154 1990 55 WP MM NOT_NAMED 1990-07-26 15:00:00 TS 31.4249 156.037 main 1474 1449 __P___________ -1 31.4249 156.037 1 23 1002 10 1
1990206N29154 1990 55 WP MM NOT_NAMED 1990-07-26 18:00:00 TS 32.0000 156.000 main 1449 1413 __O___________ -1 32.0000 156.000 1 23 1002 11 349
1990206N29154 1990 55 WP MM NOT_NAMED 1990-07-26 21:00:00 TS 32.5001 155.788 main 1413 1369 __P___________ -1 32.5001 155.788 1 26 1001 11 337
1990206N29154 1990 55 WP MM NOT_NAMED 1990-07-27 00:00:00 TS 33.0000 155.500 main 1369 1336 __O___________ -1 33.0000 155.500 1 29 1000 11 337
1990206N29154 1990 55 WP MM NOT_NAMED 1990-07-27 03:00:00 TS 33.4996 155.287 main 1336 1296 __P___________ -1 33.4996 155.287 1 29 1000 11 337
1990206N29154 1990 55 WP MM NOT_NAMED 1990-07-27 06:00:00 TS 34.0000 155.000 main 1296 1237 __O___________ -1 34.0000 155.000 1 29 1000 12 329
1990206N29154 1990 55 WP MM NOT_NAMED 1990-07-27 09:00:00 TS 34.5008 154.552 main 1237 1162 __P___________ -1 34.5008 154.552 1 26 1001 13 320
1990206N29154 1990 55 WP MM NOT_NAMED 1990-07-27 12:00:00 TS 35.0000 154.000 main 1162 __O___________ -1 35.0000 154.000 1 23 1002 13 318

Digital Typhoon Data and Search

About IBTrACS Database

This database is a web-friendly format of International Best Track Archive for Climate Stewardship (IBTrACS), a global best track data archive curated by NOAA dating back to 1842.

Updated: 2021-12-08